createdAt,value
2022-12-16T00:01:08.660Z,94.30
2022-12-16T00:03:17.700Z,94.50
2022-12-16T00:05:25.152Z,94.80
2022-12-16T00:07:32.745Z,95.00
2022-12-16T00:09:39.667Z,95.00
2022-12-16T00:11:46.952Z,95.30
2022-12-16T00:13:55.125Z,95.60
2022-12-16T00:16:02.614Z,95.80
2022-12-16T00:18:09.830Z,95.90
2022-12-16T00:20:19.160Z,95.80
2022-12-16T00:22:26.085Z,95.60
2022-12-16T00:24:33.778Z,95.60
2022-12-16T00:26:40.703Z,95.30
2022-12-16T00:28:48.193Z,95.40
2022-12-16T00:30:56.091Z,94.80
2022-12-16T00:33:03.686Z,94.70
2022-12-16T00:35:11.119Z,94.90
2022-12-16T00:37:20.144Z,94.50
2022-12-16T00:39:27.184Z,94.20
2022-12-16T00:41:34.609Z,93.70
2022-12-16T00:43:41.636Z,93.50
2022-12-16T00:45:50.583Z,93.30
2022-12-16T00:47:58.971Z,93.10
2022-12-16T00:50:06.714Z,92.80
2022-12-16T00:52:13.794Z,92.60
2022-12-16T00:54:22.976Z,92.10
2022-12-16T00:56:30.102Z,92.10
2022-12-16T00:58:37.336Z,91.50
2022-12-16T01:00:44.493Z,90.80
2022-12-16T01:02:53.716Z,90.30
2022-12-16T01:05:00.826Z,89.70
2022-12-16T01:07:08.161Z,89.10
2022-12-16T01:09:15.444Z,87.60
2022-12-16T01:11:24.572Z,87.00
2022-12-16T01:13:31.912Z,86.10
2022-12-16T01:15:41.188Z,86.00
2022-12-16T01:17:49.751Z,86.20
2022-12-16T01:20:00.004Z,86.00
2022-12-16T01:22:07.341Z,86.00
2022-12-16T01:24:15.340Z,85.20
2022-12-16T01:26:24.474Z,85.30
2022-12-16T01:28:31.394Z,85.40
2022-12-16T01:30:38.779Z,85.70
2022-12-16T01:32:45.910Z,85.80
2022-12-16T01:34:55.577Z,85.30
2022-12-16T01:37:02.934Z,84.60
2022-12-16T01:39:14.723Z,84.50
2022-12-16T01:41:24.364Z,84.30
2022-12-16T01:43:33.789Z,84.40
2022-12-16T01:45:41.714Z,84.20
2022-12-16T01:47:48.775Z,83.80
2022-12-16T01:49:58.823Z,82.80
2022-12-16T01:52:08.772Z,82.90
2022-12-16T01:54:21.535Z,83.00
2022-12-16T01:56:33.171Z,82.70
2022-12-16T01:58:42.762Z,82.30
2022-12-16T02:00:49.813Z,81.10
2022-12-16T02:02:58.758Z,81.10
2022-12-16T02:05:24.781Z,80.90
2022-12-16T02:07:31.758Z,80.90
2022-12-16T02:09:38.996Z,81.10
2022-12-16T02:12:12.136Z,80.90
2022-12-16T02:14:44.654Z,79.90
2022-12-16T02:17:00.025Z,79.30
2022-12-16T02:19:20.934Z,78.80
2022-12-16T02:21:43.833Z,78.90
2022-12-16T02:24:23.680Z,78.90
2022-12-16T02:27:06.499Z,79.00
2022-12-16T02:29:36.258Z,78.30
2022-12-16T02:31:53.930Z,76.60
2022-12-16T02:34:12.841Z,77.70
2022-12-16T02:36:35.434Z,77.10
2022-12-16T02:38:56.002Z,75.60
2022-12-16T02:41:07.105Z,75.30
2022-12-16T02:43:21.198Z,74.60
2022-12-16T02:45:31.539Z,74.40
2022-12-16T02:47:42.108Z,72.80
2022-12-16T02:49:55.286Z,72.00
2022-12-16T02:52:05.233Z,72.00
2022-12-16T02:54:14.614Z,72.90
2022-12-16T02:56:34.493Z,72.60
2022-12-16T02:58:50.433Z,70.90
2022-12-16T03:01:04.450Z,69.90
2022-12-16T03:03:19.377Z,68.90
2022-12-16T03:05:29.538Z,69.90
2022-12-16T03:07:40.354Z,70.10
2022-12-16T03:09:49.532Z,69.70
2022-12-16T03:11:59.486Z,69.30
2022-12-16T03:14:08.451Z,66.10
2022-12-16T03:16:18.468Z,66.90
2022-12-16T03:18:28.195Z,66.30
2022-12-16T03:20:39.981Z,66.20
2022-12-16T03:22:52.642Z,65.40
2022-12-16T03:25:00.155Z,66.10
2022-12-16T03:27:14.222Z,65.10
2022-12-16T03:29:28.174Z,64.20
2022-12-16T03:31:40.467Z,65.10
2022-12-16T03:33:55.430Z,64.70
2022-12-16T03:36:05.272Z,63.70
2022-12-16T03:38:15.424Z,63.50
2022-12-16T03:40:24.501Z,62.70
2022-12-16T03:42:32.499Z,63.10
2022-12-16T03:44:40.359Z,63.70
2022-12-16T03:46:47.950Z,63.20
2022-12-16T03:48:57.015Z,63.00
2022-12-16T03:51:04.358Z,62.90
2022-12-16T03:53:11.671Z,63.20
2022-12-16T03:55:19.174Z,62.10
2022-12-16T03:57:26.202Z,62.10
2022-12-16T03:59:33.333Z,62.50
2022-12-16T04:01:40.391Z,62.60
2022-12-16T04:03:47.588Z,62.60
2022-12-16T04:05:56.209Z,62.90
2022-12-16T04:08:03.645Z,62.10
2022-12-16T04:10:11.956Z,61.80
2022-12-16T04:12:50.571Z,61.30
2022-12-16T04:15:14.750Z,62.10
2022-12-16T04:17:38.265Z,61.30
2022-12-16T04:20:05.470Z,60.40
2022-12-16T04:22:37.944Z,60.00
2022-12-16T04:24:45.329Z,58.70
2022-12-16T04:27:15.043Z,58.20
2022-12-16T04:29:23.037Z,58.70
2022-12-16T04:31:29.994Z,57.70
2022-12-16T04:33:53.786Z,58.00
2022-12-16T04:36:17.350Z,57.40
2022-12-16T04:38:42.712Z,57.80
2022-12-16T04:41:05.969Z,57.30
2022-12-16T04:43:30.636Z,57.50
2022-12-16T04:45:53.960Z,55.80
2022-12-16T04:48:17.483Z,57.10
2022-12-16T04:50:40.639Z,56.60
2022-12-16T04:53:04.562Z,55.90
2022-12-16T04:55:31.149Z,53.60
2022-12-16T04:57:54.817Z,53.70
2022-12-16T05:00:18.537Z,55.40
2022-12-16T05:02:42.593Z,54.50
2022-12-16T05:05:05.771Z,53.50
2022-12-16T05:07:32.005Z,54.20
2022-12-16T05:09:58.533Z,54.40
2022-12-16T05:12:24.455Z,53.10
2022-12-16T05:14:47.150Z,54.20
2022-12-16T05:17:10.769Z,52.50
2022-12-16T05:19:49.027Z,53.10
2022-12-16T05:22:12.955Z,52.50
2022-12-16T05:24:37.285Z,52.80
2022-12-16T05:27:00.852Z,51.20
2022-12-16T05:29:26.105Z,52.10
2022-12-16T05:31:49.877Z,52.60
2022-12-16T05:34:12.981Z,50.70
2022-12-16T05:36:36.545Z,51.50
2022-12-16T05:38:59.497Z,50.50
2022-12-16T05:41:25.469Z,50.50
2022-12-16T05:43:48.474Z,51.10
2022-12-16T05:46:13.949Z,51.10
2022-12-16T05:48:36.936Z,50.70
2022-12-16T05:51:01.321Z,48.60
2022-12-16T05:53:24.581Z,50.70
2022-12-16T05:55:47.836Z,50.20
2022-12-16T05:58:11.401Z,50.50
2022-12-16T06:00:38.296Z,49.00
2022-12-16T06:03:03.689Z,50.30
2022-12-16T06:05:28.191Z,49.40
2022-12-16T06:08:03.021Z,50.20
2022-12-16T06:10:26.742Z,50.60
2022-12-16T06:12:50.306Z,48.70
2022-12-16T06:15:14.129Z,49.00
2022-12-16T06:17:37.437Z,49.50
2022-12-16T06:20:02.853Z,48.80
2022-12-16T06:22:27.744Z,47.90
2022-12-16T06:24:51.105Z,50.00
2022-12-16T06:27:14.263Z,47.80
2022-12-16T06:29:38.085Z,49.10
2022-12-16T06:32:01.698Z,48.50
2022-12-16T06:34:25.367Z,48.80
2022-12-16T06:36:50.675Z,49.30
2022-12-16T06:39:14.648Z,49.50
2022-12-16T06:41:37.758Z,50.30
2022-12-16T06:44:16.116Z,49.90
2022-12-16T06:46:39.888Z,48.40
2022-12-16T06:49:02.995Z,49.00
2022-12-16T06:51:26.557Z,48.20
2022-12-16T06:53:54.329Z,48.20
2022-12-16T06:56:17.937Z,48.90
2022-12-16T06:58:40.993Z,48.70
2022-12-16T07:01:01.771Z,48.80
2022-12-16T07:03:26.332Z,48.90
2022-12-16T07:05:49.804Z,48.70
2022-12-16T07:08:13.361Z,48.70
2022-12-16T07:10:38.820Z,49.30
2022-12-16T07:13:01.771Z,49.00
2022-12-16T07:15:26.311Z,49.90
2022-12-16T07:17:50.023Z,50.00
2022-12-16T07:20:13.701Z,49.00
2022-12-16T07:22:37.266Z,49.30
2022-12-16T07:25:00.422Z,49.20
2022-12-16T07:27:25.674Z,49.50
2022-12-16T07:29:49.040Z,50.00
2022-12-16T07:32:12.954Z,50.10
2022-12-16T07:34:41.275Z,50.40
2022-12-16T07:37:06.798Z,50.60
2022-12-16T07:39:30.108Z,50.80
2022-12-16T07:41:54.033Z,49.90
2022-12-16T07:44:19.237Z,49.70
2022-12-16T07:46:43.114Z,48.70
2022-12-16T07:49:06.420Z,49.60
2022-12-16T07:51:30.191Z,49.10
2022-12-16T07:53:53.764Z,49.40
2022-12-16T07:56:17.269Z,49.90
2022-12-16T07:58:40.531Z,50.20
2022-12-16T08:01:09.404Z,50.40
2022-12-16T08:03:33.375Z,50.60
2022-12-16T08:05:57.217Z,50.80
2022-12-16T08:08:20.478Z,50.10
2022-12-16T08:10:44.092Z,49.00
2022-12-16T08:13:07.870Z,49.20
2022-12-16T08:15:32.862Z,48.80
2022-12-16T08:17:57.915Z,49.80
2022-12-16T08:20:21.429Z,49.70
2022-12-16T08:22:44.480Z,49.40
2022-12-16T08:25:08.048Z,49.50
2022-12-16T08:27:31.458Z,48.90
2022-12-16T08:29:55.131Z,49.50
2022-12-16T08:32:33.335Z,49.30
2022-12-16T08:34:59.107Z,49.70
2022-12-16T08:37:22.668Z,48.60
2022-12-16T08:39:51.362Z,49.50
2022-12-16T08:42:27.824Z,48.90
2022-12-16T08:44:50.876Z,49.00
2022-12-16T08:47:14.390Z,49.50
2022-12-16T08:49:37.546Z,48.90
2022-12-16T08:52:02.853Z,49.10
2022-12-16T08:54:38.553Z,49.60
2022-12-16T08:57:02.687Z,49.40
2022-12-16T08:59:26.094Z,49.30
2022-12-16T09:01:49.932Z,49.10
2022-12-16T09:04:14.347Z,49.70
2022-12-16T09:06:40.683Z,49.90
2022-12-16T09:09:06.142Z,49.60
2022-12-16T09:11:29.863Z,49.20
2022-12-16T09:13:53.223Z,49.20
2022-12-16T09:16:19.508Z,49.10
2022-12-16T09:18:43.018Z,49.70
2022-12-16T09:21:10.890Z,50.00
2022-12-16T09:23:45.714Z,50.20
2022-12-16T09:26:11.240Z,50.30
2022-12-16T09:28:34.981Z,50.70
2022-12-16T09:30:58.608Z,50.50
2022-12-16T09:33:22.591Z,50.40
2022-12-16T09:35:46.258Z,49.80
2022-12-16T09:38:09.770Z,50.20
2022-12-16T09:40:41.581Z,50.10
2022-12-16T09:43:12.981Z,49.90
2022-12-16T09:45:42.024Z,50.40
2022-12-16T09:48:13.473Z,50.70
2022-12-16T09:50:41.494Z,51.40
2022-12-16T09:53:07.825Z,51.30
2022-12-16T09:55:43.064Z,51.40
2022-12-16T09:58:09.291Z,51.50
2022-12-16T10:00:41.408Z,50.80
2022-12-16T10:03:07.633Z,51.30
2022-12-16T10:05:35.302Z,51.60
2022-12-16T10:08:06.032Z,52.90
2022-12-16T10:10:40.249Z,54.10
2022-12-16T10:13:09.854Z,54.80
2022-12-16T10:15:43.453Z,55.70
2022-12-16T10:18:07.152Z,56.50
2022-12-16T10:20:40.264Z,57.20
2022-12-16T10:23:10.280Z,58.20
2022-12-16T10:25:39.123Z,59.40
2022-12-16T10:28:04.633Z,60.00
2022-12-16T10:30:33.576Z,60.40
2022-12-16T10:33:02.925Z,61.40
2022-12-16T10:35:39.700Z,62.80
2022-12-16T10:38:04.087Z,62.10
2022-12-16T10:40:34.768Z,61.70
2022-12-16T10:43:09.801Z,62.00
2022-12-16T10:45:43.249Z,63.80
2022-12-16T10:48:06.816Z,64.00
2022-12-16T10:50:33.454Z,64.40
2022-12-16T10:53:15.503Z,64.50
2022-12-16T10:55:48.386Z,66.30
2022-12-16T10:58:20.603Z,67.20
2022-12-16T11:01:03.728Z,67.60
2022-12-16T11:03:41.854Z,70.10
2022-12-16T11:06:05.503Z,69.70
2022-12-16T11:08:44.888Z,68.90
2022-12-16T11:11:20.285Z,69.70
2022-12-16T11:13:47.534Z,69.60
2022-12-16T11:16:30.618Z,69.90
2022-12-16T11:19:08.612Z,70.60
2022-12-16T11:21:34.737Z,70.80
2022-12-16T11:23:57.945Z,71.10
2022-12-16T11:26:36.695Z,69.40
2022-12-16T11:29:01.567Z,70.10
2022-12-16T11:31:33.787Z,70.50
2022-12-16T11:33:57.554Z,70.10
2022-12-16T11:36:33.763Z,69.60
2022-12-16T11:39:01.994Z,69.50
2022-12-16T11:41:38.405Z,70.40
2022-12-16T11:44:07.399Z,70.90
2022-12-16T11:46:45.356Z,70.60
2022-12-16T11:49:14.347Z,71.50
2022-12-16T11:51:41.291Z,72.00
2022-12-16T11:54:08.338Z,72.60
2022-12-16T11:56:36.786Z,72.50
2022-12-16T11:59:20.353Z,72.90
2022-12-16T12:01:50.698Z,72.20
2022-12-16T12:04:15.517Z,71.10
2022-12-16T12:06:47.843Z,71.20
2022-12-16T12:09:18.892Z,71.60
2022-12-16T12:11:47.468Z,72.20
2022-12-16T12:14:23.116Z,72.90
2022-12-16T12:16:54.616Z,72.80
2022-12-16T12:19:23.559Z,73.40
2022-12-16T12:21:50.097Z,73.80
2022-12-16T12:24:18.628Z,74.40
2022-12-16T12:26:48.295Z,74.50
2022-12-16T12:29:19.428Z,75.00
2022-12-16T12:31:54.354Z,75.70
2022-12-16T12:34:28.319Z,76.10
2022-12-16T12:36:58.030Z,76.20
2022-12-16T12:39:33.731Z,76.40
2022-12-16T12:42:20.439Z,76.70
2022-12-16T12:45:01.877Z,76.50
2022-12-16T12:47:32.249Z,76.60
2022-12-16T12:50:03.139Z,76.20
2022-12-16T12:52:40.120Z,76.10
2022-12-16T12:55:08.035Z,77.20
2022-12-16T12:57:34.774Z,77.10
2022-12-16T13:00:15.800Z,76.40
2022-12-16T13:02:47.187Z,77.60
2022-12-16T13:05:13.060Z,77.80
2022-12-16T13:07:37.499Z,77.50
2022-12-16T13:10:01.574Z,78.10
2022-12-16T13:12:47.769Z,78.60
2022-12-16T13:15:22.398Z,78.40
2022-12-16T13:17:48.625Z,78.30
2022-12-16T13:20:19.309Z,78.20
2022-12-16T13:22:51.266Z,78.50
2022-12-16T13:25:17.340Z,78.80
2022-12-16T13:27:46.492Z,79.50
2022-12-16T13:30:23.882Z,79.70
2022-12-16T13:32:54.359Z,79.90
2022-12-16T13:35:21.464Z,79.60
2022-12-16T13:37:46.720Z,79.70
2022-12-16T13:40:23.033Z,79.90
2022-12-16T13:43:10.715Z,79.70
2022-12-16T13:45:52.632Z,80.20
2022-12-16T13:48:23.242Z,80.40
2022-12-16T13:51:00.378Z,80.20
2022-12-16T13:53:26.145Z,80.60
2022-12-16T13:55:52.988Z,80.20
2022-12-16T13:58:23.987Z,80.20
2022-12-16T14:00:48.577Z,80.30
2022-12-16T14:03:12.693Z,80.50
2022-12-16T14:05:46.655Z,81.20
2022-12-16T14:08:12.525Z,81.70
2022-12-16T14:10:47.517Z,82.10
2022-12-16T14:13:22.133Z,82.60
2022-12-16T14:15:51.024Z,82.60
2022-12-16T14:18:22.985Z,82.80
2022-12-16T14:20:56.180Z,82.90
2022-12-16T14:23:55.360Z,82.70
2022-12-16T14:26:17.051Z,82.30
2022-12-16T14:28:48.192Z,82.40
2022-12-16T14:31:23.995Z,82.50
2022-12-16T14:33:49.710Z,82.70
2022-12-16T14:36:14.812Z,82.80
2022-12-16T14:38:45.190Z,83.30
2022-12-16T14:41:12.108Z,83.50
2022-12-16T14:43:37.800Z,83.70
2022-12-16T14:46:08.930Z,83.40
2022-12-16T14:48:49.790Z,83.60
2022-12-16T14:51:27.511Z,83.90
2022-12-16T14:53:52.253Z,83.60
2022-12-16T14:56:28.210Z,83.30
2022-12-16T14:58:51.467Z,83.40
2022-12-16T15:01:19.101Z,83.60
2022-12-16T15:03:53.621Z,83.70
2022-12-16T15:06:23.465Z,84.00
2022-12-16T15:08:49.026Z,83.40
2022-12-16T15:11:09.317Z,83.20
2022-12-16T15:13:37.727Z,83.10
2022-12-16T15:16:04.803Z,83.40
2022-12-16T15:18:37.935Z,83.10
2022-12-16T15:21:08.460Z,82.20
2022-12-16T15:23:40.269Z,82.30
2022-12-16T15:26:10.288Z,81.70
2022-12-16T15:28:56.640Z,81.90
2022-12-16T15:31:20.485Z,81.60
2022-12-16T15:33:45.867Z,81.80
2022-12-16T15:36:09.539Z,82.40
2022-12-16T15:38:43.340Z,82.50
2022-12-16T15:41:11.465Z,82.60
2022-12-16T15:43:50.887Z,82.80
2022-12-16T15:46:18.082Z,83.30
2022-12-16T15:48:46.073Z,83.60
2022-12-16T15:51:13.169Z,83.70
2022-12-16T15:53:50.117Z,84.50
2022-12-16T15:56:15.867Z,85.00
2022-12-16T15:58:47.264Z,84.80
2022-12-16T16:01:17.904Z,84.70
2022-12-16T16:03:44.169Z,84.70
2022-12-16T16:06:07.692Z,84.70
2022-12-16T16:08:32.133Z,84.60
2022-12-16T16:10:57.539Z,84.80
2022-12-16T16:13:21.101Z,84.90
2022-12-16T16:15:44.476Z,85.10
2022-12-16T16:18:09.720Z,85.20
2022-12-16T16:20:35.956Z,85.30
2022-12-16T16:22:59.617Z,85.40
2022-12-16T16:25:23.536Z,85.60
2022-12-16T16:27:49.152Z,85.50
2022-12-16T16:30:26.950Z,85.50
2022-12-16T16:33:05.625Z,85.70
2022-12-16T16:35:29.083Z,85.60
2022-12-16T16:37:57.820Z,85.80
2022-12-16T16:40:21.693Z,85.90
2022-12-16T16:42:46.488Z,86.10
2022-12-16T16:45:09.849Z,85.90
2022-12-16T16:47:37.099Z,85.80
2022-12-16T16:50:02.413Z,85.70
2022-12-16T16:52:30.070Z,85.50
2022-12-16T16:55:08.177Z,85.50
2022-12-16T16:57:31.177Z,85.70
2022-12-16T16:59:56.385Z,85.70
2022-12-16T17:02:20.072Z,85.70
2022-12-16T17:04:44.583Z,85.80
2022-12-16T17:07:08.514Z,85.70
2022-12-16T17:09:32.129Z,85.90
2022-12-16T17:11:57.694Z,86.20
2022-12-16T17:14:20.858Z,86.50
2022-12-16T17:16:46.565Z,86.70
2022-12-16T17:19:10.132Z,86.60
2022-12-16T17:21:33.643Z,86.70
2022-12-16T17:23:56.650Z,87.00
2022-12-16T17:26:19.911Z,86.90
2022-12-16T17:28:43.983Z,87.00
2022-12-16T17:31:07.694Z,86.80
2022-12-16T17:33:33.409Z,86.40
2022-12-16T17:35:57.444Z,86.10
2022-12-16T17:38:21.012Z,86.00
2022-12-16T17:40:45.499Z,86.10
2022-12-16T17:43:08.688Z,86.30
2022-12-16T17:45:32.119Z,86.40
2022-12-16T17:47:55.068Z,86.30
2022-12-16T17:50:20.481Z,86.30
2022-12-16T17:52:43.637Z,86.20
2022-12-16T17:55:07.252Z,86.00
2022-12-16T17:57:30.153Z,86.10
2022-12-16T17:59:54.817Z,86.10
2022-12-16T18:02:18.407Z,86.00
2022-12-16T18:04:42.285Z,85.80
2022-12-16T18:07:08.048Z,86.00
2022-12-16T18:09:31.306Z,86.30
2022-12-16T18:11:54.769Z,86.20
2022-12-16T18:14:18.080Z,85.70
2022-12-16T18:16:41.893Z,85.90
2022-12-16T18:19:09.362Z,86.30
2022-12-16T18:21:34.169Z,86.70
2022-12-16T18:23:59.459Z,87.20
2022-12-16T18:26:25.481Z,87.20
2022-12-16T18:28:49.357Z,87.20
2022-12-16T18:31:13.978Z,87.40
2022-12-16T18:33:37.349Z,87.30
2022-12-16T18:36:01.331Z,87.40
2022-12-16T18:38:24.590Z,87.50
2022-12-16T18:40:49.898Z,87.60
2022-12-16T18:43:13.157Z,87.30
2022-12-16T18:45:48.391Z,86.90
2022-12-16T18:48:12.014Z,87.20
2022-12-16T18:50:38.006Z,87.50
2022-12-16T18:53:01.655Z,87.70
2022-12-16T18:55:26.346Z,87.50
2022-12-16T18:57:51.553Z,87.50
2022-12-16T19:00:15.217Z,87.80
2022-12-16T19:02:38.368Z,88.30
2022-12-16T19:05:02.245Z,88.20
2022-12-16T19:07:25.451Z,88.20
2022-12-16T19:09:49.176Z,88.10
2022-12-16T19:12:14.632Z,88.20
2022-12-16T19:14:40.091Z,88.20
2022-12-16T19:17:05.299Z,88.30
2022-12-16T19:19:40.278Z,88.00
2022-12-16T19:22:03.799Z,87.80
2022-12-16T19:24:27.462Z,88.00
2022-12-16T19:26:50.979Z,88.40
2022-12-16T19:29:15.308Z,88.70
2022-12-16T19:31:40.973Z,88.80
2022-12-16T19:34:04.842Z,89.00
2022-12-16T19:36:29.699Z,89.00
2022-12-16T19:38:52.900Z,89.10
2022-12-16T19:41:19.633Z,89.20
2022-12-16T19:43:43.410Z,89.30
2022-12-16T19:46:12.438Z,90.10
2022-12-16T19:48:37.915Z,90.40
2022-12-16T19:51:01.635Z,91.00
2022-12-16T19:53:24.726Z,91.10
2022-12-16T19:55:48.411Z,91.20
2022-12-16T19:58:11.566Z,91.30
2022-12-16T20:00:35.590Z,91.00
2022-12-16T20:02:59.347Z,90.80
2022-12-16T20:05:25.488Z,90.70
2022-12-16T20:07:49.154Z,90.90
2022-12-16T20:10:12.980Z,90.90
2022-12-16T20:12:36.491Z,91.10
2022-12-16T20:15:00.516Z,91.40
2022-12-16T20:17:23.989Z,91.10
2022-12-16T20:19:47.907Z,91.40
2022-12-16T20:22:16.417Z,91.30
2022-12-16T20:24:40.514Z,91.30
2022-12-16T20:27:03.771Z,91.10
2022-12-16T20:29:27.543Z,91.00
2022-12-16T20:31:51.876Z,91.00
2022-12-16T20:34:16.313Z,90.90
2022-12-16T20:36:45.513Z,90.70
2022-12-16T20:39:10.764Z,90.40
2022-12-16T20:41:34.491Z,90.20
2022-12-16T20:43:58.051Z,90.00
2022-12-16T20:46:21.980Z,89.80
2022-12-16T20:48:45.183Z,89.80
2022-12-16T20:51:14.635Z,89.80
2022-12-16T20:53:38.225Z,90.50
2022-12-16T20:56:03.711Z,90.90
2022-12-16T20:58:27.331Z,90.70
2022-12-16T21:00:51.872Z,90.30
2022-12-16T21:03:15.220Z,90.00
2022-12-16T21:05:39.153Z,89.80
2022-12-16T21:08:02.885Z,89.80
2022-12-16T21:10:27.478Z,89.60
2022-12-16T21:12:53.178Z,89.50
2022-12-16T21:15:17.102Z,89.50
2022-12-16T21:17:40.361Z,89.80
2022-12-16T21:20:04.028Z,90.10
2022-12-16T21:22:27.440Z,89.90
2022-12-16T21:24:51.754Z,89.90
2022-12-16T21:27:15.390Z,89.70
2022-12-16T21:29:41.212Z,89.50
2022-12-16T21:32:04.621Z,89.50
2022-12-16T21:34:28.425Z,89.50
2022-12-16T21:36:51.600Z,89.50
2022-12-16T21:39:15.624Z,89.80
2022-12-16T21:41:39.089Z,89.70
2022-12-16T21:44:03.016Z,89.60
2022-12-16T21:46:29.247Z,89.80
2022-12-16T21:49:04.785Z,89.70
2022-12-16T21:51:28.661Z,90.10
2022-12-16T21:53:53.463Z,90.00
2022-12-16T21:56:17.533Z,90.30
2022-12-16T21:58:41.509Z,90.70
2022-12-16T22:01:04.869Z,91.10
2022-12-16T22:03:30.635Z,91.00
2022-12-16T22:05:54.149Z,91.20
2022-12-16T22:08:24.935Z,91.30
2022-12-16T22:10:48.453Z,91.00
2022-12-16T22:13:12.067Z,90.90
2022-12-16T22:15:35.784Z,90.60
2022-12-16T22:17:59.865Z,90.50
2022-12-16T22:20:25.688Z,90.50
2022-12-16T22:22:49.144Z,90.90
2022-12-16T22:25:14.513Z,91.30
2022-12-16T22:27:38.481Z,91.20
2022-12-16T22:30:01.685Z,91.30
2022-12-16T22:32:26.120Z,91.40
2022-12-16T22:34:58.287Z,91.10
2022-12-16T22:37:23.953Z,91.20
2022-12-16T22:39:47.316Z,91.00
2022-12-16T22:42:10.674Z,90.80
2022-12-16T22:44:34.138Z,90.70
2022-12-16T22:47:06.509Z,90.70
2022-12-16T22:49:30.230Z,90.60
2022-12-16T22:51:53.981Z,90.90
2022-12-16T22:54:19.305Z,91.10
2022-12-16T22:56:42.923Z,91.20
2022-12-16T22:59:06.492Z,91.60
2022-12-16T23:01:30.619Z,91.70
2022-12-16T23:03:56.446Z,91.70
2022-12-16T23:06:20.669Z,91.60
2022-12-16T23:08:43.670Z,91.70
2022-12-16T23:11:16.094Z,91.70
2022-12-16T23:13:38.678Z,91.80
2022-12-16T23:16:02.819Z,92.20
2022-12-16T23:18:26.075Z,92.10
2022-12-16T23:20:50.972Z,91.90
2022-12-16T23:23:15.407Z,91.80
2022-12-16T23:25:38.870Z,91.80
2022-12-16T23:28:03.766Z,92.10
2022-12-16T23:30:28.510Z,92.30
2022-12-16T23:32:51.974Z,91.60
2022-12-16T23:35:17.077Z,91.60
2022-12-16T23:37:40.230Z,92.00
2022-12-16T23:40:04.205Z,92.30
2022-12-16T23:42:27.772Z,92.70
2022-12-16T23:44:56.488Z,92.10
2022-12-16T23:47:19.920Z,91.60
2022-12-16T23:49:43.691Z,91.20
2022-12-16T23:52:06.847Z,90.90
2022-12-16T23:54:30.366Z,91.00
2022-12-16T23:56:53.417Z,90.90
2022-12-16T23:59:19.748Z,90.80
